createdAt,value
2023-04-07T00:01:06.680Z,9.40
2023-04-07T00:03:55.192Z,8.50
2023-04-07T00:06:45.254Z,8.38
2023-04-07T00:09:33.769Z,9.55
2023-04-07T00:12:22.160Z,7.60
2023-04-07T00:15:11.233Z,10.40
2023-04-07T00:18:01.092Z,9.27
2023-04-07T00:20:49.611Z,8.48
2023-04-07T00:23:38.073Z,8.27
2023-04-07T00:26:29.116Z,9.35
2023-04-07T00:29:17.646Z,7.55
2023-04-07T00:32:06.200Z,6.50
2023-04-07T00:34:56.163Z,7.75
2023-04-07T00:37:44.716Z,7.15
2023-04-07T00:40:33.155Z,8.27
2023-04-07T00:43:21.592Z,8.50
2023-04-07T00:46:10.124Z,7.40
2023-04-07T00:48:58.619Z,7.10
2023-04-07T00:51:48.532Z,7.28
2023-04-07T00:54:36.990Z,7.85
2023-04-07T00:57:25.520Z,7.63
2023-04-07T01:00:15.323Z,7.87
2023-04-07T01:03:10.802Z,7.57
2023-04-07T01:06:02.668Z,8.55
2023-04-07T01:08:58.441Z,8.50
2023-04-07T01:11:59.544Z,6.45
2023-04-07T01:14:53.086Z,8.15
2023-04-07T01:17:59.766Z,6.47
2023-04-07T01:20:51.422Z,6.25
2023-04-07T01:24:09.181Z,6.88
2023-04-07T01:27:01.117Z,5.55
2023-04-07T01:29:51.911Z,5.70
2023-04-07T01:32:41.937Z,10.07
2023-04-07T01:35:32.594Z,6.03
2023-04-07T01:38:21.576Z,5.47
2023-04-07T01:41:11.017Z,4.57
2023-04-07T01:44:01.470Z,5.80
2023-04-07T01:46:52.032Z,5.50
2023-04-07T01:49:41.968Z,5.55
2023-04-07T01:52:31.098Z,6.20
2023-04-07T01:55:19.609Z,4.32
2023-04-07T01:58:08.453Z,6.65
2023-04-07T02:00:57.015Z,5.90
2023-04-07T02:03:53.361Z,5.80
2023-04-07T02:06:49.227Z,4.97
2023-04-07T02:09:40.914Z,4.88
2023-04-07T02:12:31.213Z,4.95
2023-04-07T02:15:20.723Z,4.78
2023-04-07T02:18:10.635Z,5.82
2023-04-07T02:21:01.886Z,4.27
2023-04-07T02:23:50.688Z,4.43
2023-04-07T02:26:39.208Z,5.50
2023-04-07T02:29:27.696Z,3.70
2023-04-07T02:32:17.866Z,4.13
2023-04-07T02:35:07.249Z,6.85
2023-04-07T02:37:57.164Z,6.22
2023-04-07T02:40:45.685Z,4.67
2023-04-07T02:43:34.109Z,3.95
2023-04-07T02:46:22.525Z,5.05
2023-04-07T02:49:11.076Z,4.82
2023-04-07T02:51:59.563Z,3.22
2023-04-07T02:54:49.410Z,4.10
2023-04-07T02:57:37.887Z,4.82
2023-04-07T03:00:26.730Z,5.32
2023-04-07T03:03:15.304Z,5.03
2023-04-07T03:06:03.906Z,4.53
2023-04-07T03:08:52.275Z,4.55
2023-04-07T03:11:42.668Z,3.72
2023-04-07T03:14:31.116Z,4.15
2023-04-07T03:17:19.548Z,4.45
2023-04-07T03:20:09.584Z,4.32
2023-04-07T03:22:58.018Z,5.22
2023-04-07T03:25:47.569Z,4.38
2023-04-07T03:28:38.408Z,3.87
2023-04-07T03:31:27.012Z,4.88
2023-04-07T03:34:15.556Z,5.50
2023-04-07T03:37:04.117Z,6.43
2023-04-07T03:39:52.580Z,5.53
2023-04-07T03:42:41.298Z,4.47
2023-04-07T03:45:31.216Z,5.50
2023-04-07T03:48:19.656Z,5.88
2023-04-07T03:51:08.242Z,5.45
2023-04-07T03:53:56.825Z,5.35
2023-04-07T03:56:45.763Z,4.22
2023-04-07T03:59:34.232Z,4.82
2023-04-07T04:02:24.161Z,4.50
2023-04-07T04:05:12.692Z,4.72
2023-04-07T04:08:01.198Z,4.90
2023-04-07T04:10:49.634Z,6.53
2023-04-07T04:13:38.039Z,4.53
2023-04-07T04:16:26.441Z,5.47
2023-04-07T04:19:16.518Z,5.03
2023-04-07T04:22:04.940Z,6.88
2023-04-07T04:24:53.433Z,7.45
2023-04-07T04:27:41.917Z,5.60
2023-04-07T04:30:30.337Z,6.63
2023-04-07T04:33:18.813Z,7.78
2023-04-07T04:36:09.204Z,6.25
2023-04-07T04:38:57.738Z,6.00
2023-04-07T04:41:47.142Z,6.80
2023-04-07T04:44:35.675Z,7.65
2023-04-07T04:47:24.223Z,7.75
2023-04-07T04:50:12.999Z,6.53
2023-04-07T04:53:02.853Z,8.27
2023-04-07T04:55:53.405Z,9.20
2023-04-07T04:58:46.189Z,9.15
2023-04-07T05:01:34.682Z,6.97
2023-04-07T05:04:23.358Z,8.50
2023-04-07T05:07:12.006Z,10.02
2023-04-07T05:10:02.100Z,10.43
2023-04-07T05:12:50.982Z,9.57
2023-04-07T05:15:39.808Z,10.43
2023-04-07T05:18:28.223Z,7.57
2023-04-07T05:21:16.738Z,8.90
2023-04-07T05:24:06.280Z,7.85
2023-04-07T05:26:57.956Z,6.85
2023-04-07T05:29:46.372Z,8.10
2023-04-07T05:32:34.866Z,6.28
2023-04-07T05:35:23.999Z,6.18
2023-04-07T05:38:12.425Z,6.45
2023-04-07T05:41:00.852Z,5.63
2023-04-07T05:43:50.825Z,5.73
2023-04-07T05:46:39.325Z,5.43
2023-04-07T05:49:27.831Z,4.72
2023-04-07T05:52:16.533Z,5.57
2023-04-07T05:55:06.179Z,5.85
2023-04-07T05:57:54.689Z,6.23
2023-04-07T06:00:44.473Z,7.40
2023-04-07T06:03:33.093Z,7.60
2023-04-07T06:06:21.768Z,7.35
2023-04-07T06:09:10.304Z,6.38
2023-04-07T06:11:58.974Z,7.22
2023-04-07T06:14:52.623Z,6.07
2023-04-07T06:17:43.974Z,6.05
2023-04-07T06:20:32.462Z,4.38
2023-04-07T06:23:21.042Z,4.05
2023-04-07T06:26:12.290Z,7.73
2023-04-07T06:29:00.934Z,6.95
2023-04-07T06:31:49.339Z,6.93
2023-04-07T06:34:39.241Z,5.40
2023-04-07T06:37:27.692Z,7.10
2023-04-07T06:40:16.064Z,6.20
2023-04-07T06:43:05.144Z,5.70
2023-04-07T06:45:53.643Z,6.68
2023-04-07T06:48:42.069Z,7.90
2023-04-07T06:51:32.523Z,7.53
2023-04-07T06:54:21.765Z,6.25
2023-04-07T06:57:12.267Z,4.47
2023-04-07T07:00:01.162Z,3.65
2023-04-07T07:02:49.888Z,4.87
2023-04-07T07:05:38.358Z,4.13
2023-04-07T07:08:29.211Z,6.87
2023-04-07T07:11:17.639Z,5.35
2023-04-07T07:14:06.180Z,5.70
2023-04-07T07:16:54.646Z,6.47
2023-04-07T07:19:43.132Z,6.32
2023-04-07T07:22:31.556Z,5.10
2023-04-07T07:25:21.356Z,5.35
2023-04-07T07:28:09.923Z,8.02
2023-04-07T07:30:58.319Z,6.07
2023-04-07T07:33:48.616Z,10.05
2023-04-07T07:36:37.349Z,6.35
2023-04-07T07:39:25.789Z,5.97
2023-04-07T07:42:15.656Z,10.40
2023-04-07T07:45:04.829Z,6.97
2023-04-07T07:47:53.368Z,5.93
2023-04-07T07:50:42.884Z,5.78
2023-04-07T07:53:31.364Z,5.05
2023-04-07T07:56:19.752Z,7.28
2023-04-07T07:59:09.635Z,6.30
2023-04-07T08:01:58.366Z,9.82
2023-04-07T08:04:47.264Z,4.80
2023-04-07T08:07:36.607Z,9.67
2023-04-07T08:10:25.937Z,9.93
2023-04-07T08:13:14.639Z,8.10
2023-04-07T08:16:04.847Z,6.78
2023-04-07T08:18:53.593Z,9.57
2023-04-07T08:21:42.455Z,13.05
2023-04-07T08:24:31.253Z,7.45
2023-04-07T08:27:21.277Z,8.13
2023-04-07T08:30:10.074Z,8.40
2023-04-07T08:33:00.146Z,7.82
2023-04-07T08:35:48.983Z,9.07
2023-04-07T08:38:37.770Z,9.00
2023-04-07T08:41:29.312Z,9.88
2023-04-07T08:44:18.183Z,11.18
2023-04-07T08:47:08.830Z,8.52
2023-04-07T08:50:02.143Z,10.38
2023-04-07T08:52:52.755Z,8.77
2023-04-07T08:55:41.612Z,9.75
2023-04-07T08:58:31.645Z,13.40
2023-04-07T09:01:20.746Z,9.68
2023-04-07T09:04:09.886Z,10.87
2023-04-07T09:07:02.040Z,10.30
2023-04-07T09:09:50.963Z,9.27
2023-04-07T09:12:39.954Z,10.85
2023-04-07T09:15:31.873Z,12.43
2023-04-07T09:18:20.830Z,9.43
2023-04-07T09:21:09.852Z,12.07
2023-04-07T09:23:59.929Z,10.75
2023-04-07T09:26:48.721Z,12.65
2023-04-07T09:29:37.745Z,8.68
2023-04-07T09:32:38.630Z,11.17
2023-04-07T09:35:28.485Z,11.47
2023-04-07T09:38:17.499Z,13.10
2023-04-07T09:41:11.846Z,14.13
2023-04-07T09:44:00.585Z,8.95
2023-04-07T09:46:52.984Z,11.23
2023-04-07T09:49:51.127Z,11.30
2023-04-07T09:52:53.625Z,13.50
2023-04-07T09:55:42.642Z,12.60
2023-04-07T09:58:32.448Z,13.25
2023-04-07T10:01:23.052Z,9.95
2023-04-07T10:04:11.927Z,16.55
2023-04-07T10:07:01.583Z,12.25
2023-04-07T10:09:50.006Z,13.90
2023-04-07T10:12:39.337Z,10.77
2023-04-07T10:15:29.258Z,13.25
2023-04-07T10:18:21.489Z,10.65
2023-04-07T10:21:15.179Z,10.82
2023-04-07T10:24:19.849Z,14.05
2023-04-07T10:27:11.938Z,12.40
2023-04-07T10:30:01.472Z,11.98
2023-04-07T10:32:54.680Z,11.32
2023-04-07T10:36:07.483Z,12.87
2023-04-07T10:39:21.502Z,12.95
2023-04-07T10:42:48.889Z,11.25
2023-04-07T10:46:03.013Z,14.20
2023-04-07T10:49:10.516Z,15.73
2023-04-07T10:52:24.515Z,14.35
2023-04-07T10:55:38.077Z,14.35
2023-04-07T10:58:29.018Z,15.05
2023-04-07T11:01:21.826Z,15.27
2023-04-07T11:04:11.800Z,15.90
2023-04-07T11:07:00.504Z,12.25
2023-04-07T11:09:49.025Z,22.27
2023-04-07T11:12:37.578Z,25.98
2023-04-07T11:15:26.194Z,21.25
2023-04-07T11:18:18.020Z,19.05
2023-04-07T11:21:09.293Z,17.15
2023-04-07T11:23:57.704Z,17.52
2023-04-07T11:26:48.324Z,16.15
2023-04-07T11:29:38.685Z,14.85
2023-04-07T11:32:29.893Z,12.93
2023-04-07T11:35:18.623Z,17.90
2023-04-07T11:38:08.595Z,16.42
2023-04-07T11:40:57.867Z,12.05
2023-04-07T11:43:46.727Z,18.33
2023-04-07T11:46:36.160Z,20.25
2023-04-07T11:49:26.154Z,13.73
2023-04-07T11:52:14.880Z,13.67
2023-04-07T11:55:04.859Z,17.25
2023-04-07T11:57:53.938Z,16.33
2023-04-07T12:00:55.881Z,16.57
2023-04-07T12:03:59.234Z,14.77
2023-04-07T12:06:50.114Z,17.67
2023-04-07T12:09:38.958Z,16.88
2023-04-07T12:12:29.732Z,13.57
2023-04-07T12:15:18.225Z,11.10
2023-04-07T12:18:06.978Z,16.52
2023-04-07T12:20:55.607Z,20.08
2023-04-07T12:23:44.060Z,15.32
2023-04-07T12:26:32.515Z,11.80
2023-04-07T12:29:22.322Z,18.67
2023-04-07T12:32:11.189Z,12.98
2023-04-07T12:34:59.763Z,10.40
2023-04-07T12:37:50.021Z,13.77
2023-04-07T12:40:38.918Z,16.88
2023-04-07T12:43:27.616Z,14.75
2023-04-07T12:46:17.740Z,12.05
2023-04-07T12:49:06.620Z,12.32
2023-04-07T12:51:55.852Z,12.18
2023-04-07T12:54:45.473Z,10.35
2023-04-07T12:57:34.461Z,11.55
2023-04-07T13:00:23.388Z,12.07
2023-04-07T13:03:13.577Z,12.18
2023-04-07T13:06:02.562Z,9.55
2023-04-07T13:08:51.754Z,14.48
2023-04-07T13:11:40.460Z,14.60
2023-04-07T13:14:29.147Z,10.73
2023-04-07T13:17:18.720Z,18.10
2023-04-07T13:20:09.789Z,14.48
2023-04-07T13:23:07.771Z,12.33
2023-04-07T13:25:58.682Z,17.67
2023-04-07T13:28:47.965Z,19.20
2023-04-07T13:31:36.680Z,14.38
2023-04-07T13:34:25.608Z,12.97
2023-04-07T13:37:16.656Z,17.92
2023-04-07T13:40:05.915Z,14.68
2023-04-07T13:42:54.625Z,10.80
2023-04-07T13:45:43.418Z,20.73
2023-04-07T13:48:32.721Z,18.90
2023-04-07T13:51:21.433Z,16.70
2023-04-07T13:54:11.831Z,15.88
2023-04-07T13:57:00.545Z,15.77
2023-04-07T13:59:49.356Z,11.73
2023-04-07T14:02:38.619Z,12.57
2023-04-07T14:05:27.413Z,14.15
2023-04-07T14:08:16.341Z,12.50
2023-04-07T14:11:06.454Z,14.90
2023-04-07T14:13:57.655Z,10.60
2023-04-07T14:16:46.373Z,10.77
2023-04-07T14:19:35.173Z,13.85
2023-04-07T14:22:23.959Z,17.05
2023-04-07T14:25:12.570Z,17.50
2023-04-07T14:28:02.510Z,16.98
2023-04-07T14:30:51.625Z,16.50
2023-04-07T14:33:40.118Z,17.30
2023-04-07T14:36:28.500Z,16.38
2023-04-07T14:39:16.906Z,16.20
2023-04-07T14:42:05.541Z,19.23
2023-04-07T14:44:55.676Z,16.60
2023-04-07T14:47:44.159Z,11.80
2023-04-07T14:50:33.654Z,14.73
2023-04-07T14:53:22.619Z,16.70
2023-04-07T14:56:11.045Z,13.38
2023-04-07T14:58:59.427Z,14.60
2023-04-07T15:01:49.403Z,19.88
2023-04-07T15:04:38.023Z,21.67
2023-04-07T15:07:26.677Z,17.85
2023-04-07T15:10:15.093Z,15.98
2023-04-07T15:13:03.743Z,16.50
2023-04-07T15:15:52.182Z,15.25
2023-04-07T15:18:44.519Z,13.73
2023-04-07T15:21:32.981Z,15.47
2023-04-07T15:24:22.299Z,13.55
2023-04-07T15:27:10.988Z,22.15
2023-04-07T15:29:59.862Z,20.30
2023-04-07T15:32:59.069Z,18.55
2023-04-07T15:35:49.001Z,20.00
2023-04-07T15:38:38.851Z,13.63
2023-04-07T15:41:27.324Z,14.07
2023-04-07T15:44:19.259Z,15.48
2023-04-07T15:47:07.884Z,13.93
2023-04-07T15:49:56.406Z,13.73
2023-04-07T15:52:46.214Z,12.85
2023-04-07T15:55:35.086Z,14.27
2023-04-07T15:58:23.504Z,15.15
2023-04-07T16:01:12.173Z,14.68
2023-04-07T16:04:00.809Z,15.45
2023-04-07T16:06:49.337Z,13.25
2023-04-07T16:09:39.134Z,13.93
2023-04-07T16:12:27.647Z,14.32
2023-04-07T16:15:22.536Z,13.52
2023-04-07T16:18:21.824Z,13.02
2023-04-07T16:21:11.116Z,13.27
2023-04-07T16:23:59.530Z,12.13
2023-04-07T16:26:50.561Z,13.50
2023-04-07T16:29:39.090Z,12.65
2023-04-07T16:32:27.702Z,14.35
2023-04-07T16:35:16.789Z,17.40
2023-04-07T16:38:06.187Z,17.23
2023-04-07T16:41:03.952Z,18.30
2023-04-07T16:43:54.885Z,17.33
2023-04-07T16:46:43.437Z,13.68
2023-04-07T16:49:31.870Z,16.47
2023-04-07T16:52:20.839Z,17.15
2023-04-07T16:55:09.685Z,21.10
2023-04-07T16:57:58.126Z,14.60
2023-04-07T17:00:48.015Z,17.30
2023-04-07T17:03:37.135Z,16.40
2023-04-07T17:06:25.830Z,16.40
2023-04-07T17:09:16.168Z,15.40
2023-04-07T17:12:05.876Z,14.75
2023-04-07T17:14:54.387Z,17.75
2023-04-07T17:17:44.365Z,14.10
2023-04-07T17:20:32.938Z,14.57
2023-04-07T17:23:22.031Z,18.73
2023-04-07T17:26:10.610Z,14.02
2023-04-07T17:29:00.003Z,15.75
2023-04-07T17:31:50.783Z,17.80
2023-04-07T17:34:41.070Z,19.33
2023-04-07T17:37:29.636Z,18.65
2023-04-07T17:40:18.167Z,19.38
2023-04-07T17:43:06.654Z,19.65
2023-04-07T17:45:55.469Z,18.42
2023-04-07T17:48:45.541Z,21.58
2023-04-07T17:51:35.414Z,18.97
2023-04-07T17:54:24.136Z,18.52
2023-04-07T17:57:14.220Z,22.90
2023-04-07T18:00:02.823Z,22.08
2023-04-07T18:02:51.476Z,19.17
2023-04-07T18:05:44.815Z,19.85
2023-04-07T18:08:34.659Z,17.15
2023-04-07T18:11:23.171Z,24.77
2023-04-07T18:14:11.616Z,17.92
2023-04-07T18:17:00.037Z,16.23
2023-04-07T18:19:48.545Z,17.45
2023-04-07T18:22:37.357Z,23.70
2023-04-07T18:25:27.227Z,21.92
2023-04-07T18:28:17.043Z,22.60
2023-04-07T18:31:08.130Z,21.20
2023-04-07T18:33:57.067Z,27.25
2023-04-07T18:36:47.666Z,27.53
2023-04-07T18:39:36.547Z,24.25
2023-04-07T18:42:27.490Z,24.30
2023-04-07T18:45:16.210Z,25.02
2023-04-07T18:48:05.146Z,24.40
2023-04-07T18:50:54.987Z,26.58
2023-04-07T18:53:43.797Z,24.50
2023-04-07T18:56:32.967Z,25.80
2023-04-07T18:59:23.069Z,26.35
2023-04-07T19:02:11.990Z,28.10
2023-04-07T19:05:00.846Z,26.95
2023-04-07T19:07:49.698Z,25.45
2023-04-07T19:10:38.451Z,23.33
2023-04-07T19:13:27.338Z,26.02
2023-04-07T19:16:17.723Z,27.20
2023-04-07T19:19:06.586Z,27.48
2023-04-07T19:21:55.610Z,28.40
2023-04-07T19:24:44.515Z,24.08
2023-04-07T19:27:33.564Z,27.63
2023-04-07T19:30:22.434Z,26.60
2023-04-07T19:33:12.836Z,27.65
2023-04-07T19:36:01.742Z,22.67
2023-04-07T19:38:50.484Z,24.63
2023-04-07T19:41:39.431Z,26.35
2023-04-07T19:44:28.355Z,23.50
2023-04-07T19:47:17.114Z,26.38
2023-04-07T19:50:07.997Z,26.15
2023-04-07T19:52:56.479Z,29.92
2023-04-07T19:55:45.212Z,27.15
2023-04-07T19:58:34.615Z,30.42
2023-04-07T20:01:23.098Z,26.88
2023-04-07T20:04:11.587Z,27.37
2023-04-07T20:07:01.637Z,26.85
2023-04-07T20:09:51.486Z,23.85
2023-04-07T20:12:40.019Z,23.20
2023-04-07T20:15:28.568Z,25.30
2023-04-07T20:18:18.567Z,30.02
2023-04-07T20:21:07.120Z,25.38
2023-04-07T20:23:57.210Z,26.23
2023-04-07T20:26:45.830Z,29.27
2023-04-07T20:29:34.319Z,27.42
2023-04-07T20:32:22.795Z,25.60
2023-04-07T20:35:12.130Z,19.65
2023-04-07T20:38:02.700Z,19.10
2023-04-07T20:40:53.274Z,18.30
2023-04-07T20:43:41.921Z,17.38
2023-04-07T20:46:30.924Z,19.70
2023-04-07T20:49:19.478Z,17.70
2023-04-07T20:52:08.279Z,15.85
2023-04-07T20:54:56.691Z,14.20
2023-04-07T20:57:46.641Z,15.43
2023-04-07T21:00:35.112Z,14.98
2023-04-07T21:03:23.895Z,15.13
2023-04-07T21:06:12.407Z,17.30
2023-04-07T21:09:01.399Z,13.65
2023-04-07T21:11:49.786Z,15.88
2023-04-07T21:14:39.566Z,13.45
2023-04-07T21:17:28.032Z,13.38
2023-04-07T21:20:16.832Z,14.25
2023-04-07T21:23:06.052Z,12.88
2023-04-07T21:25:54.468Z,13.40
2023-04-07T21:28:42.982Z,14.13
2023-04-07T21:31:33.820Z,13.75
2023-04-07T21:34:22.319Z,12.88
2023-04-07T21:37:10.752Z,12.45
2023-04-07T21:39:59.257Z,13.00
2023-04-07T21:42:47.966Z,12.68
2023-04-07T21:45:36.387Z,13.80
2023-04-07T21:48:26.247Z,13.35
2023-04-07T21:51:14.652Z,12.47
2023-04-07T21:54:03.086Z,12.95
2023-04-07T21:56:52.750Z,12.85
2023-04-07T21:59:41.206Z,14.50
2023-04-07T22:02:29.848Z,14.15
2023-04-07T22:05:20.080Z,12.80
2023-04-07T22:08:08.561Z,13.50
2023-04-07T22:10:58.556Z,13.65
2023-04-07T22:13:46.997Z,14.48
2023-04-07T22:16:35.585Z,13.20
2023-04-07T22:19:24.758Z,13.90
2023-04-07T22:22:14.681Z,12.60
2023-04-07T22:25:03.367Z,13.25
2023-04-07T22:27:52.347Z,13.45
2023-04-07T22:30:40.930Z,19.30
2023-04-07T22:33:29.477Z,15.25
2023-04-07T22:36:17.914Z,14.60
2023-04-07T22:39:08.901Z,13.52
2023-04-07T22:41:57.363Z,14.67
2023-04-07T22:44:46.210Z,16.30
2023-04-07T22:47:34.690Z,21.50
2023-04-07T22:50:23.337Z,20.25
2023-04-07T22:53:11.900Z,14.82
2023-04-07T22:56:02.580Z,20.50
2023-04-07T22:58:51.587Z,22.20
2023-04-07T23:01:40.799Z,21.33
2023-04-07T23:04:29.644Z,22.77
2023-04-07T23:07:18.393Z,26.50
2023-04-07T23:10:07.742Z,20.73
2023-04-07T23:12:57.896Z,23.98
2023-04-07T23:15:47.382Z,23.08
2023-04-07T23:18:35.795Z,28.10
2023-04-07T23:21:24.293Z,22.55
2023-04-07T23:24:12.784Z,24.63
2023-04-07T23:27:01.981Z,28.23
2023-04-07T23:29:51.922Z,21.27
2023-04-07T23:32:40.313Z,22.80
2023-04-07T23:35:28.770Z,20.45
2023-04-07T23:38:17.435Z,19.52
2023-04-07T23:41:06.632Z,20.07
2023-04-07T23:43:55.039Z,19.15
2023-04-07T23:46:44.856Z,19.73
2023-04-07T23:49:33.268Z,18.92
2023-04-07T23:52:21.983Z,16.48
2023-04-07T23:55:11.156Z,20.47
2023-04-07T23:57:59.691Z,15.43
